Time;durP1;ratioP1;P1;durP2;ratioP2;P2;SDS_P1;SDS_P2;PMS_P1;PMS_P2;Temp;Humidity;BMP_temperature;BMP_pressure;BME280_temperature;BME280_humidity;BME280_pressure;Samples;Min_cycle;Max_cycle;Signal;HPM_P1;HPM_P2
2024/01/21 00:01:58;;;;;;;29.88;16.23;;;;;;;;;;6271393;22;20476;-78
2024/01/21 00:04:44;;;;;;;25.73;13.60;;;;;;;;;;6268674;22;19991;-78
2024/01/21 00:07:29;;;;;;;33.30;16.13;;;;;;;;;;6264114;22;20018;-78
2024/01/21 00:10:14;;;;;;;36.90;15.10;;;;;;;;;;6265059;22;20002;-78
2024/01/21 00:12:59;;;;;;;26.77;15.70;;;;;;;;;;6264212;22;20251;-78
2024/01/21 00:15:45;;;;;;;28.83;14.35;;;;;;;;;;6264508;22;19999;-78
2024/01/21 00:18:30;;;;;;;32.30;14.73;;;;;;;;;;6264521;22;20370;-78
2024/01/21 00:21:15;;;;;;;27.83;13.00;;;;;;;;;;6264849;22;20006;-78
2024/01/21 00:24:00;;;;;;;28.00;13.63;;;;;;;;;;6271099;22;20571;-81
2024/01/21 00:26:46;;;;;;;24.50;12.93;;;;;;;;;;6269925;22;19996;-79
2024/01/21 00:29:31;;;;;;;29.70;14.82;;;;;;;;;;6269463;22;20039;-82
2024/01/21 00:32:16;;;;;;;28.65;14.75;;;;;;;;;;6271170;22;20026;-82
2024/01/21 00:35:03;;;;;;;27.80;13.80;;;;;;;;;;6271222;22;20079;-82
2024/01/21 00:37:48;;;;;;;29.10;13.75;;;;;;;;;;6268259;22;20302;-82
2024/01/21 00:40:37;;;;;;;22.98;12.05;;;;;;;;;;6268525;22;20106;-81
2024/01/21 00:43:22;;;;;;;30.80;15.13;;;;;;;;;;6271171;22;19995;-83
2024/01/21 00:46:07;;;;;;;27.27;14.45;;;;;;;;;;6267294;22;20034;-82
2024/01/21 00:48:53;;;;;;;27.05;13.63;;;;;;;;;;6264909;22;20056;-81
2024/01/21 00:51:38;;;;;;;25.85;13.75;;;;;;;;;;6264563;22;20436;-80
2024/01/21 00:54:23;;;;;;;24.67;13.15;;;;;;;;;;6263097;22;20007;-80
2024/01/21 00:57:08;;;;;;;28.40;11.90;;;;;;;;;;6268374;22;20480;-79
2024/01/21 00:59:54;;;;;;;28.35;15.07;;;;;;;;;;6271322;22;20083;-79
2024/01/21 01:02:39;;;;;;;30.27;13.65;;;;;;;;;;6271238;22;20002;-79
2024/01/21 01:05:24;;;;;;;28.60;14.68;;;;;;;;;;6269394;22;19999;-80
2024/01/21 01:08:09;;;;;;;24.55;13.00;;;;;;;;;;6270565;22;20003;-80
2024/01/21 01:10:55;;;;;;;28.90;13.68;;;;;;;;;;6271361;22;19999;-79
2024/01/21 01:13:40;;;;;;;25.08;13.18;;;;;;;;;;6268009;22;20050;-79
2024/01/21 01:16:25;;;;;;;28.70;14.07;;;;;;;;;;6275106;22;20053;-78
2024/01/21 01:19:11;;;;;;;23.70;12.82;;;;;;;;;;6282997;22;19999;-80
2024/01/21 01:21:56;;;;;;;23.85;13.30;;;;;;;;;;6271857;22;19995;-79
2024/01/21 01:24:41;;;;;;;26.98;13.25;;;;;;;;;;6277888;22;20311;-78
2024/01/21 01:27:26;;;;;;;26.67;13.77;;;;;;;;;;6285556;22;20059;-79
2024/01/21 01:30:12;;;;;;;25.45;13.15;;;;;;;;;;6296364;22;19999;-78
2024/01/21 01:32:57;;;;;;;23.45;11.82;;;;;;;;;;6277174;22;20079;-79
2024/01/21 01:35:42;;;;;;;25.13;14.68;;;;;;;;;;6269785;22;20001;-79
2024/01/21 01:38:27;;;;;;;25.67;13.23;;;;;;;;;;6270814;22;20040;-79
2024/01/21 01:41:13;;;;;;;25.35;12.23;;;;;;;;;;6272443;22;20509;-78
2024/01/21 01:43:58;;;;;;;22.75;10.95;;;;;;;;;;6271956;22;20324;-81
2024/01/21 01:46:43;;;;;;;23.73;11.45;;;;;;;;;;6267484;22;19999;-81
2024/01/21 01:49:29;;;;;;;26.88;12.35;;;;;;;;;;6265885;22;20003;-78
2024/01/21 01:52:15;;;;;;;25.33;11.82;;;;;;;;;;6263337;22;20432;-80
2024/01/21 01:55:01;;;;;;;18.13;9.77;;;;;;;;;;6265820;22;20003;-79
2024/01/21 01:57:46;;;;;;;21.83;10.85;;;;;;;;;;6269255;22;20000;-80
2024/01/21 02:00:32;;;;;;;21.77;9.98;;;;;;;;;;6267990;22;20010;-80
2024/01/21 02:03:17;;;;;;;21.98;9.95;;;;;;;;;;6266854;22;20003;-80
2024/01/21 02:06:02;;;;;;;25.48;11.05;;;;;;;;;;6248889;22;20414;-80
2024/01/21 02:08:47;;;;;;;19.60;10.25;;;;;;;;;;6268290;22;20531;-80
2024/01/21 02:11:33;;;;;;;23.88;10.23;;;;;;;;;;6245744;22;20015;-80
2024/01/21 02:14:18;;;;;;;19.02;9.20;;;;;;;;;;6271219;22;20002;-80
2024/01/21 02:17:03;;;;;;;18.70;9.70;;;;;;;;;;6265533;22;20006;-79
2024/01/21 02:19:48;;;;;;;21.13;9.70;;;;;;;;;;6246962;22;20448;-79
2024/01/21 02:22:35;;;;;;;18.13;9.63;;;;;;;;;;6267927;22;20010;-79
2024/01/21 02:25:20;;;;;;;22.55;10.20;;;;;;;;;;6266826;22;20007;-80
2024/01/21 02:28:06;;;;;;;17.35;9.30;;;;;;;;;;6263853;22;19999;-80
2024/01/21 02:30:51;;;;;;;22.83;10.82;;;;;;;;;;6267833;22;20079;-79
2024/01/21 02:33:36;;;;;;;16.02;8.02;;;;;;;;;;6263416;22;20023;-79
2024/01/21 02:36:21;;;;;;;18.00;9.38;;;;;;;;;;6262928;22;20007;-79
2024/01/21 02:39:07;;;;;;;20.55;9.40;;;;;;;;;;6264826;22;20006;-78
2024/01/21 02:41:52;;;;;;;17.27;7.80;;;;;;;;;;6265751;22;19999;-79
2024/01/21 02:44:37;;;;;;;20.60;9.77;;;;;;;;;;6270256;22;20642;-79
2024/01/21 02:47:24;;;;;;;20.83;8.23;;;;;;;;;;6266723;22;20386;-79
2024/01/21 02:50:09;;;;;;;16.15;8.73;;;;;;;;;;6270155;22;19995;-79
2024/01/21 02:52:54;;;;;;;18.58;8.55;;;;;;;;;;6269672;22;20048;-78
2024/01/21 02:55:40;;;;;;;17.52;8.60;;;;;;;;;;6267802;22;19999;-78
2024/01/21 02:58:25;;;;;;;17.80;7.28;;;;;;;;;;6269908;22;20531;-82
2024/01/21 03:01:10;;;;;;;15.07;8.05;;;;;;;;;;6270624;22;20074;-80
2024/01/21 03:03:55;;;;;;;15.70;7.82;;;;;;;;;;6275873;22;19995;-80
2024/01/21 03:06:41;;;;;;;19.38;6.90;;;;;;;;;;6271672;22;20003;-80
2024/01/21 03:09:27;;;;;;;13.07;6.97;;;;;;;;;;6271963;22;19999;-79
2024/01/21 03:12:12;;;;;;;15.00;7.13;;;;;;;;;;6269712;22;20023;-80
2024/01/21 03:14:57;;;;;;;14.75;7.18;;;;;;;;;;6271845;22;20003;-81
2024/01/21 03:17:42;;;;;;;15.88;7.10;;;;;;;;;;6270235;22;19999;-80
2024/01/21 03:20:27;;;;;;;14.50;7.43;;;;;;;;;;6269743;22;20137;-80
2024/01/21 03:23:13;;;;;;;18.38;7.63;;;;;;;;;;6276741;22;19997;-80
2024/01/21 03:25:58;;;;;;;13.55;7.25;;;;;;;;;;6276408;22;20000;-80
2024/01/21 03:28:43;;;;;;;13.77;7.40;;;;;;;;;;6274397;22;20003;-80
2024/01/21 03:31:29;;;;;;;13.65;6.78;;;;;;;;;;6273900;22;20030;-81
2024/01/21 03:34:14;;;;;;;12.23;5.82;;;;;;;;;;6276283;22;20048;-79
2024/01/21 03:36:59;;;;;;;14.88;6.88;;;;;;;;;;6276732;22;20206;-79
2024/01/21 03:39:44;;;;;;;14.00;6.38;;;;;;;;;;6273860;22;20046;-80
2024/01/21 03:42:30;;;;;;;14.68;7.00;;;;;;;;;;6274501;22;20090;-80
2024/01/21 03:45:15;;;;;;;11.98;6.00;;;;;;;;;;6275574;22;20003;-79
2024/01/21 03:48:00;;;;;;;12.35;6.05;;;;;;;;;;6274006;22;19999;-80
2024/01/21 03:50:46;;;;;;;15.32;6.82;;;;;;;;;;6270878;22;19999;-79
2024/01/21 03:53:31;;;;;;;16.50;7.50;;;;;;;;;;6269560;22;19995;-79
2024/01/21 03:56:17;;;;;;;17.05;6.05;;;;;;;;;;6269476;22;19995;-79
2024/01/21 03:59:03;;;;;;;11.70;5.57;;;;;;;;;;6272924;22;19999;-79
2024/01/21 04:01:49;;;;;;;13.85;6.78;;;;;;;;;;6275354;22;20309;-79
2024/01/21 04:04:34;;;;;;;14.55;6.03;;;;;;;;;;6270431;22;20002;-78
2024/01/21 04:07:19;;;;;;;11.50;6.25;;;;;;;;;;6271752;22;20088;-79
2024/01/21 04:10:06;;;;;;;11.23;5.78;;;;;;;;;;6271071;22;20060;-79
2024/01/21 04:12:52;;;;;;;13.13;6.32;;;;;;;;;;6269884;22;20019;-81
2024/01/21 04:15:37;;;;;;;14.40;6.55;;;;;;;;;;6268713;22;19999;-80
2024/01/21 04:18:22;;;;;;;10.57;5.32;;;;;;;;;;6271512;22;19995;-78
2024/01/21 04:21:07;;;;;;;13.23;6.40;;;;;;;;;;6269412;22;20003;-80
2024/01/21 04:23:53;;;;;;;10.55;5.07;;;;;;;;;;6265275;22;20053;-80
2024/01/21 04:26:44;;;;;;;10.27;6.22;;;;;;;;;;6264782;22;20424;-82
2024/01/21 04:29:30;;;;;;;12.48;5.35;;;;;;;;;;6265539;22;20328;-80
2024/01/21 04:32:15;;;;;;;11.57;5.95;;;;;;;;;;6264518;22;19999;-81
2024/01/21 04:35:00;;;;;;;12.38;5.80;;;;;;;;;;6267362;22;20432;-81
2024/01/21 04:37:45;;;;;;;10.73;5.28;;;;;;;;;;6269413;22;20323;-80
2024/01/21 04:40:31;;;;;;;13.55;5.15;;;;;;;;;;6247741;22;20078;-81
2024/01/21 04:43:16;;;;;;;9.70;4.60;;;;;;;;;;6270958;22;20093;-80
2024/01/21 04:46:01;;;;;;;9.75;5.45;;;;;;;;;;6271138;22;20011;-79
2024/01/21 04:48:47;;;;;;;13.55;5.95;;;;;;;;;;6268597;22;19999;-79
2024/01/21 04:51:32;;;;;;;12.27;5.90;;;;;;;;;;6269620;22;19999;-81
2024/01/21 04:54:18;;;;;;;10.75;5.35;;;;;;;;;;6271303;22;19999;-80
2024/01/21 04:57:03;;;;;;;9.65;5.35;;;;;;;;;;6271349;22;20030;-81
2024/01/21 04:59:48;;;;;;;10.85;6.28;;;;;;;;;;6269675;22;20007;-80
2024/01/21 05:02:34;;;;;;;12.75;4.75;;;;;;;;;;6268930;22;20003;-81
2024/01/21 05:05:19;;;;;;;10.80;4.57;;;;;;;;;;6269172;22;20056;-81
2024/01/21 05:08:04;;;;;;;14.07;6.15;;;;;;;;;;6263963;22;20003;-80
2024/01/21 05:10:49;;;;;;;11.52;5.03;;;;;;;;;;6264485;22;20480;-78
2024/01/21 05:13:35;;;;;;;10.93;5.55;;;;;;;;;;6242902;22;20023;-79
2024/01/21 05:16:20;;;;;;;11.18;5.20;;;;;;;;;;6268509;22;19996;-80
2024/01/21 05:19:05;;;;;;;12.75;5.10;;;;;;;;;;6270426;22;20759;-79
2024/01/21 05:21:51;;;;;;;10.63;5.45;;;;;;;;;;6271785;22;20014;-79
2024/01/21 05:24:36;;;;;;;11.20;4.97;;;;;;;;;;6268661;22;20366;-79
2024/01/21 05:27:21;;;;;;;11.30;4.78;;;;;;;;;;6248820;22;20030;-80
2024/01/21 05:30:07;;;;;;;9.07;5.07;;;;;;;;;;6271067;22;19995;-80
2024/01/21 05:32:52;;;;;;;10.65;4.80;;;;;;;;;;6269020;22;20121;-81
2024/01/21 05:35:37;;;;;;;9.95;5.55;;;;;;;;;;6269505;22;19998;-80
2024/01/21 05:38:22;;;;;;;9.18;5.03;;;;;;;;;;6271155;22;20010;-80
2024/01/21 05:41:08;;;;;;;10.10;5.15;;;;;;;;;;6268656;22;20003;-80
2024/01/21 05:43:53;;;;;;;15.48;6.05;;;;;;;;;;6266065;22;20006;-82
2024/01/21 05:46:38;;;;;;;10.40;4.82;;;;;;;;;;6264025;22;20398;-81
2024/01/21 05:49:23;;;;;;;11.18;4.85;;;;;;;;;;6266440;22;20436;-80
2024/01/21 05:52:09;;;;;;;10.82;4.82;;;;;;;;;;6266869;22;20073;-80
2024/01/21 05:54:54;;;;;;;12.23;5.45;;;;;;;;;;6264574;22;19995;-80
2024/01/21 05:57:40;;;;;;;10.60;5.78;;;;;;;;;;6242983;22;20125;-80
2024/01/21 06:00:25;;;;;;;10.57;5.40;;;;;;;;;;6266451;22;19995;-80
2024/01/21 06:03:10;;;;;;;12.48;6.28;;;;;;;;;;6271538;22;20493;-80
2024/01/21 06:05:56;;;;;;;15.00;5.57;;;;;;;;;;6270584;22;20455;-80
2024/01/21 06:08:41;;;;;;;12.20;6.35;;;;;;;;;;6267768;22;20077;-80
2024/01/21 06:11:27;;;;;;;11.43;5.72;;;;;;;;;;6269993;22;20446;-79
2024/01/21 06:14:12;;;;;;;10.57;4.78;;;;;;;;;;6269926;22;20006;-79
2024/01/21 06:16:58;;;;;;;8.98;4.18;;;;;;;;;;6270246;22;20003;-78
2024/01/21 06:19:43;;;;;;;10.88;5.53;;;;;;;;;;6267906;22;20006;-80
2024/01/21 06:22:28;;;;;;;11.00;5.43;;;;;;;;;;6271290;22;19995;-79
2024/01/21 06:25:14;;;;;;;9.63;5.25;;;;;;;;;;6270337;22;20006;-79
2024/01/21 06:28:00;;;;;;;11.07;5.68;;;;;;;;;;6263011;22;20003;-79
2024/01/21 06:30:45;;;;;;;10.02;4.85;;;;;;;;;;6263473;22;20074;-79
2024/01/21 06:33:31;;;;;;;10.68;4.88;;;;;;;;;;6264164;22;20441;-79
2024/01/21 06:36:16;;;;;;;8.80;4.90;;;;;;;;;;6264077;22;20062;-79
2024/01/21 06:39:03;;;;;;;10.77;4.97;;;;;;;;;;6266748;22;20057;-79
2024/01/21 06:41:48;;;;;;;11.27;5.22;;;;;;;;;;6266222;22;20435;-79
2024/01/21 06:44:35;;;;;;;10.57;5.32;;;;;;;;;;6269866;22;20000;-81
2024/01/21 06:47:20;;;;;;;9.27;5.13;;;;;;;;;;6272768;22;20456;-81
2024/01/21 06:50:05;;;;;;;11.88;4.65;;;;;;;;;;6273651;22;19999;-81
2024/01/21 06:52:50;;;;;;;10.90;4.80;;;;;;;;;;6270468;22;20006;-80
2024/01/21 06:55:36;;;;;;;13.05;4.72;;;;;;;;;;6270711;22;20006;-82
2024/01/21 06:58:21;;;;;;;9.98;4.60;;;;;;;;;;6273096;22;20195;-82
2024/01/21 07:01:06;;;;;;;9.95;4.88;;;;;;;;;;6273332;22;20003;-80
2024/01/21 07:03:52;;;;;;;12.57;5.30;;;;;;;;;;6270523;22;20027;-82
2024/01/21 07:06:38;;;;;;;9.15;4.95;;;;;;;;;;6268460;22;20280;-79
2024/01/21 07:09:24;;;;;;;11.65;5.38;;;;;;;;;;6247525;22;20006;-80
2024/01/21 07:12:09;;;;;;;12.23;5.97;;;;;;;;;;6265572;22;20022;-79
2024/01/21 07:14:54;;;;;;;11.40;4.93;;;;;;;;;;6267518;22;19995;-80
2024/01/21 07:17:40;;;;;;;12.13;5.90;;;;;;;;;;6265834;22;20275;-80
2024/01/21 07:20:28;;;;;;;13.20;5.20;;;;;;;;;;6258029;22;20068;-80
2024/01/21 07:23:13;;;;;;;15.77;5.53;;;;;;;;;;6272169;22;19995;-80
2024/01/21 07:25:59;;;;;;;8.30;5.03;;;;;;;;;;6266687;22;20458;-80
2024/01/21 07:28:44;;;;;;;13.15;5.25;;;;;;;;;;6269688;22;19999;-79
2024/01/21 07:31:30;;;;;;;14.48;6.78;;;;;;;;;;6270397;22;20508;-79
2024/01/21 07:34:15;;;;;;;14.48;5.90;;;;;;;;;;6272108;22;20077;-78
2024/01/21 07:37:00;;;;;;;14.35;5.88;;;;;;;;;;6267121;22;19996;-79
2024/01/21 07:39:45;;;;;;;10.18;4.88;;;;;;;;;;6265336;22;20006;-79
2024/01/21 07:42:31;;;;;;;11.32;5.20;;;;;;;;;;6265121;22;20089;-79
2024/01/21 07:45:16;;;;;;;11.02;5.20;;;;;;;;;;6265520;22;19999;-78
2024/01/21 07:48:01;;;;;;;10.98;5.45;;;;;;;;;;6268182;22;20007;-79
2024/01/21 07:50:47;;;;;;;10.95;4.78;;;;;;;;;;6266989;22;20078;-78
2024/01/21 07:53:32;;;;;;;12.63;5.75;;;;;;;;;;6269937;22;20007;-78
2024/01/21 07:56:17;;;;;;;11.80;5.78;;;;;;;;;;6272126;22;20658;-79
2024/01/21 07:59:02;;;;;;;11.50;5.35;;;;;;;;;;6272112;22;19999;-80
2024/01/21 08:01:47;;;;;;;11.23;5.55;;;;;;;;;;6268993;22;20008;-81
2024/01/21 08:04:33;;;;;;;13.07;5.22;;;;;;;;;;6269787;22;20003;-80
2024/01/21 08:07:18;;;;;;;10.30;4.75;;;;;;;;;;6271784;22;20030;-81
2024/01/21 08:10:04;;;;;;;10.02;4.75;;;;;;;;;;6250814;22;20531;-80
2024/01/21 08:12:50;;;;;;;10.40;5.00;;;;;;;;;;6267531;22;20455;-81
2024/01/21 08:15:35;;;;;;;10.90;5.35;;;;;;;;;;6265615;22;19998;-82
2024/01/21 08:18:20;;;;;;;11.18;5.20;;;;;;;;;;6265812;22;20010;-81
2024/01/21 08:21:05;;;;;;;10.20;5.60;;;;;;;;;;6265973;22;20369;-81
2024/01/21 08:23:51;;;;;;;10.73;5.78;;;;;;;;;;6265516;22;20010;-81
2024/01/21 08:26:36;;;;;;;11.82;5.55;;;;;;;;;;6264926;22;20028;-81
2024/01/21 08:29:21;;;;;;;10.05;4.80;;;;;;;;;;6271261;22;20011;-80
2024/01/21 08:32:07;;;;;;;13.75;5.75;;;;;;;;;;6271148;22;20092;-80
2024/01/21 08:34:52;;;;;;;13.65;6.28;;;;;;;;;;6271483;22;20033;-81
2024/01/21 08:37:37;;;;;;;13.40;6.95;;;;;;;;;;6269816;22;20005;-80
2024/01/21 08:40:23;;;;;;;12.38;6.28;;;;;;;;;;6261581;22;20002;-80
2024/01/21 08:43:08;;;;;;;12.82;6.38;;;;;;;;;;6267166;22;19992;-79
2024/01/21 08:45:53;;;;;;;11.82;5.88;;;;;;;;;;6262757;22;19992;-80
2024/01/21 08:48:40;;;;;;;13.65;6.10;;;;;;;;;;6264035;22;20352;-81
2024/01/21 08:51:25;;;;;;;9.73;6.30;;;;;;;;;;6267587;22;20030;-81
2024/01/21 08:54:10;;;;;;;12.70;6.25;;;;;;;;;;6264899;22;20086;-81
2024/01/21 08:56:56;;;;;;;12.15;6.05;;;;;;;;;;6271815;22;19999;-80
2024/01/21 08:59:41;;;;;;;13.27;7.00;;;;;;;;;;6273446;22;19995;-80
2024/01/21 09:02:26;;;;;;;10.52;6.13;;;;;;;;;;6268657;22;19995;-79
2024/01/21 09:05:13;;;;;;;11.02;6.72;;;;;;;;;;6272445;22;20003;-80
2024/01/21 09:07:58;;;;;;;10.63;6.43;;;;;;;;;;6272710;22;20364;-78
2024/01/21 09:10:43;;;;;;;9.68;5.22;;;;;;;;;;6271569;22;20001;-80
2024/01/21 09:13:29;;;;;;;8.32;5.00;;;;;;;;;;6271906;22;20011;-80
2024/01/21 09:16:15;;;;;;;11.75;6.05;;;;;;;;;;6271676;22;19995;-81
2024/01/21 09:19:00;;;;;;;11.77;6.05;;;;;;;;;;6271419;22;20443;-78
2024/01/21 09:21:46;;;;;;;12.52;6.55;;;;;;;;;;6292344;22;20026;-81
2024/01/21 09:24:31;;;;;;;14.38;7.57;;;;;;;;;;6264455;22;20033;-81
2024/01/21 09:27:16;;;;;;;14.27;7.70;;;;;;;;;;6265048;22;19995;-81
2024/01/21 09:30:01;;;;;;;15.10;7.35;;;;;;;;;;6264670;22;20317;-80
2024/01/21 09:32:47;;;;;;;16.45;9.20;;;;;;;;;;6264680;22;20526;-80
2024/01/21 09:35:32;;;;;;;13.20;7.30;;;;;;;;;;6266350;22;20309;-77
2024/01/21 09:38:18;;;;;;;13.30;6.90;;;;;;;;;;6277929;22;19995;-79
2024/01/21 09:41:22;;;;;;;13.82;7.10;;;;;;;;;;6268256;22;20074;-79
2024/01/21 09:44:07;;;;;;;13.02;6.50;;;;;;;;;;6271888;22;20060;-80
2024/01/21 09:46:53;;;;;;;17.10;7.57;;;;;;;;;;6277078;22;20003;-81
2024/01/21 09:49:40;;;;;;;14.93;7.07;;;;;;;;;;6283030;22;20112;-80
2024/01/21 09:52:25;;;;;;;12.00;6.93;;;;;;;;;;6273909;22;19995;-80
2024/01/21 09:55:10;;;;;;;12.82;7.18;;;;;;;;;;6273331;22;20082;-81
2024/01/21 09:57:57;;;;;;;14.73;7.53;;;;;;;;;;6272497;22;20376;-80
2024/01/21 10:00:43;;;;;;;14.07;6.60;;;;;;;;;;6269894;22;20013;-80
2024/01/21 10:03:29;;;;;;;13.90;6.57;;;;;;;;;;6268116;22;20045;-79
2024/01/21 10:06:14;;;;;;;13.38;6.85;;;;;;;;;;6270406;22;20146;-78
2024/01/21 10:09:19;;;;;;;13.40;6.78;;;;;;;;;;6271065;22;20003;-78
2024/01/21 10:12:05;;;;;;;14.13;7.15;;;;;;;;;;6263150;22;20027;-78
2024/01/21 10:14:50;;;;;;;12.43;7.32;;;;;;;;;;6261782;22;20006;-80
2024/01/21 10:17:35;;;;;;;11.90;6.47;;;;;;;;;;6263164;22;20007;-77
2024/01/21 10:20:21;;;;;;;12.63;6.40;;;;;;;;;;6264142;22;20061;-77
2024/01/21 10:23:10;;;;;;;12.30;6.63;;;;;;;;;;6264074;22;20012;-78
2024/01/21 10:25:55;;;;;;;10.55;6.28;;;;;;;;;;6261741;22;20080;-82
2024/01/21 10:28:41;;;;;;;10.73;5.75;;;;;;;;;;6263577;22;20038;-82
2024/01/21 10:31:27;;;;;;;13.10;6.65;;;;;;;;;;6267927;22;20133;-80
2024/01/21 10:34:12;;;;;;;11.00;6.57;;;;;;;;;;6270750;22;19995;-82
2024/01/21 10:37:02;;;;;;;11.45;6.68;;;;;;;;;;6269694;22;20007;-82
2024/01/21 10:39:48;;;;;;;12.60;6.88;;;;;;;;;;6269206;22;19999;-81
2024/01/21 10:42:34;;;;;;;13.15;6.88;;;;;;;;;;6268900;22;20003;-83
2024/01/21 10:45:21;;;;;;;13.75;6.82;;;;;;;;;;6270533;22;19999;-82
2024/01/21 10:48:07;;;;;;;12.95;7.70;;;;;;;;;;6267680;22;20064;-81
2024/01/21 10:50:54;;;;;;;10.38;6.22;;;;;;;;;;6261302;22;20313;-82
2024/01/21 10:53:39;;;;;;;13.00;6.70;;;;;;;;;;6262639;22;20042;-82
2024/01/21 10:56:25;;;;;;;12.43;6.82;;;;;;;;;;6266127;22;19995;-81
2024/01/21 10:59:11;;;;;;;12.88;7.07;;;;;;;;;;6264792;22;20074;-81
2024/01/21 11:01:56;;;;;;;16.15;7.28;;;;;;;;;;6270217;22;20007;-81
2024/01/21 11:04:42;;;;;;;11.82;6.85;;;;;;;;;;6270676;22;20312;-82
2024/01/21 11:07:27;;;;;;;13.05;6.70;;;;;;;;;;6268436;22;20386;-81
2024/01/21 11:10:17;;;;;;;11.00;6.00;;;;;;;;;;6271139;22;20081;-81
2024/01/21 11:13:06;;;;;;;13.95;6.50;;;;;;;;;;6269749;22;20371;-82
2024/01/21 11:15:54;;;;;;;14.43;7.07;;;;;;;;;;6268026;22;20058;-82
2024/01/21 11:18:41;;;;;;;13.27;6.07;;;;;;;;;;6267599;22;20459;-81
2024/01/21 11:21:28;;;;;;;12.68;6.03;;;;;;;;;;6268125;22;20057;-80
2024/01/21 11:24:13;;;;;;;13.75;6.78;;;;;;;;;;6263755;22;20002;-80
2024/01/21 11:26:58;;;;;;;13.98;5.97;;;;;;;;;;6264450;22;20007;-81
2024/01/21 11:29:44;;;;;;;12.35;7.13;;;;;;;;;;6264774;22;20367;-81
2024/01/21 11:32:31;;;;;;;11.02;5.32;;;;;;;;;;6267766;22;19996;-81
2024/01/21 11:35:16;;;;;;;10.65;6.82;;;;;;;;;;6267345;22;20011;-82
2024/01/21 11:38:01;;;;;;;11.43;6.18;;;;;;;;;;6272780;22;20007;-81
2024/01/21 11:40:50;;;;;;;12.35;6.45;;;;;;;;;;6248915;22;20026;-81
2024/01/21 11:43:36;;;;;;;11.65;6.53;;;;;;;;;;6269331;22;20010;-85
2024/01/21 11:46:22;;;;;;;13.73;6.28;;;;;;;;;;6273491;22;20051;-86
2024/01/21 11:49:08;;;;;;;14.50;7.65;;;;;;;;;;6273246;22;20081;-83
2024/01/21 11:51:57;;;;;;;11.82;7.32;;;;;;;;;;6270571;22;19997;-84
2024/01/21 11:54:42;;;;;;;13.50;7.13;;;;;;;;;;6270749;22;20117;-84
2024/01/21 11:57:28;;;;;;;11.98;6.05;;;;;;;;;;6268485;22;20038;-84
2024/01/21 12:00:13;;;;;;;11.38;6.80;;;;;;;;;;6266416;22;20027;-82
2024/01/21 12:02:59;;;;;;;13.82;7.95;;;;;;;;;;6265877;22;20014;-82
2024/01/21 12:05:44;;;;;;;14.45;7.03;;;;;;;;;;6266097;22;20007;-81
2024/01/21 12:08:30;;;;;;;12.32;6.07;;;;;;;;;;6265321;22;20501;-82
2024/01/21 12:11:18;;;;;;;12.77;5.63;;;;;;;;;;6270064;22;20035;-83
2024/01/21 12:14:06;;;;;;;10.68;4.55;;;;;;;;;;6272680;22;20007;-82
2024/01/21 12:16:53;;;;;;;11.48;5.68;;;;;;;;;;6250245;22;20018;-83
2024/01/21 12:19:39;;;;;;;10.50;5.35;;;;;;;;;;6270824;22;19999;-82
2024/01/21 12:22:37;;;;;;;11.85;6.50;;;;;;;;;;6264057;22;20006;-80
2024/01/21 12:25:22;;;;;;;10.45;6.07;;;;;;;;;;6268227;22;20049;-81
2024/01/21 12:28:07;;;;;;;11.07;5.57;;;;;;;;;;6260836;22;19995;-81
2024/01/21 12:30:53;;;;;;;8.02;4.38;;;;;;;;;;6262494;22;20305;-82
2024/01/21 12:33:39;;;;;;;13.15;5.05;;;;;;;;;;6265457;22;20110;-82
2024/01/21 12:36:24;;;;;;;11.63;5.22;;;;;;;;;;6267257;22;19999;-82
2024/01/21 12:39:10;;;;;;;8.43;4.70;;;;;;;;;;6265975;22;20007;-82
2024/01/21 12:41:55;;;;;;;12.90;5.50;;;;;;;;;;6270905;22;20421;-82
2024/01/21 12:44:40;;;;;;;14.38;6.43;;;;;;;;;;6272280;22;20000;-81
2024/01/21 12:47:25;;;;;;;12.57;6.18;;;;;;;;;;6270111;22;20424;-82
2024/01/21 12:50:10;;;;;;;10.40;6.53;;;;;;;;;;6272303;22;20328;-82
2024/01/21 12:52:56;;;;;;;11.68;5.82;;;;;;;;;;6272198;22;20068;-80
2024/01/21 12:55:41;;;;;;;11.40;5.05;;;;;;;;;;6270367;22;19991;-84
2024/01/21 12:58:26;;;;;;;10.32;5.18;;;;;;;;;;6271615;22;19999;-84
2024/01/21 13:01:11;;;;;;;8.10;4.85;;;;;;;;;;6270386;22;20453;-82
2024/01/21 13:03:57;;;;;;;7.78;4.43;;;;;;;;;;6270905;22;20094;-84
2024/01/21 13:06:42;;;;;;;11.90;4.70;;;;;;;;;;6267600;22;20031;-84
2024/01/21 13:09:27;;;;;;;10.85;4.97;;;;;;;;;;6266462;22;19999;-83
2024/01/21 13:12:13;;;;;;;12.90;5.65;;;;;;;;;;6243696;22;20023;-81
2024/01/21 13:14:58;;;;;;;15.60;6.03;;;;;;;;;;6268604;22;19999;-83
2024/01/21 13:17:43;;;;;;;8.52;4.57;;;;;;;;;;6264635;22;20026;-81
2024/01/21 13:20:28;;;;;;;8.85;4.13;;;;;;;;;;6266568;22;20000;-82
2024/01/21 13:23:14;;;;;;;9.02;4.88;;;;;;;;;;6270561;22;20002;-80
2024/01/21 13:25:59;;;;;;;9.82;4.72;;;;;;;;;;6271181;22;20011;-82
2024/01/21 13:31:48;;;;;;;9.20;4.65;;;;;;;;;;6270940;22;19996;-84
2024/01/21 13:34:34;;;;;;;11.63;5.63;;;;;;;;;;6268478;22;20007;-82
2024/01/21 13:37:19;;;;;;;9.02;4.60;;;;;;;;;;6270415;22;20082;-82
2024/01/21 13:40:04;;;;;;;11.73;4.80;;;;;;;;;;6271926;22;20007;-82
2024/01/21 13:42:51;;;;;;;11.57;4.68;;;;;;;;;;6247246;22;20400;-84
2024/01/21 13:45:39;;;;;;;9.88;5.00;;;;;;;;;;6269514;22;20050;-84
2024/01/21 13:48:24;;;;;;;11.13;4.95;;;;;;;;;;6271312;22;20444;-83
2024/01/21 13:51:14;;;;;;;11.10;3.95;;;;;;;;;;6268352;22;19999;-81
2024/01/21 13:53:59;;;;;;;9.98;4.43;;;;;;;;;;6264942;22;20007;-80
2024/01/21 13:56:46;;;;;;;7.40;4.15;;;;;;;;;;6246143;22;20581;-80
2024/01/21 13:59:31;;;;;;;10.55;4.00;;;;;;;;;;6268879;22;20491;-80
2024/01/21 14:02:16;;;;;;;9.52;3.70;;;;;;;;;;6269529;22;20192;-80
2024/01/21 14:05:02;;;;;;;8.13;3.90;;;;;;;;;;6270777;22;20003;-80
2024/01/21 14:07:48;;;;;;;9.15;3.67;;;;;;;;;;6270756;22;20062;-82
2024/01/21 14:10:33;;;;;;;10.52;4.07;;;;;;;;;;6269058;22;20003;-82
2024/01/21 14:13:19;;;;;;;8.60;3.40;;;;;;;;;;6271021;22;20018;-82
2024/01/21 14:16:04;;;;;;;9.73;4.38;;;;;;;;;;6249563;22;20264;-81
2024/01/21 14:18:49;;;;;;;8.35;3.70;;;;;;;;;;6268425;22;20035;-81
2024/01/21 14:21:35;;;;;;;9.57;4.53;;;;;;;;;;6268939;22;20022;-80
2024/01/21 14:24:21;;;;;;;7.75;3.97;;;;;;;;;;6265854;22;20334;-82
2024/01/21 14:27:06;;;;;;;9.63;4.18;;;;;;;;;;6263148;22;20031;-81
2024/01/21 14:30:01;;;;;;;10.18;4.00;;;;;;;;;;6264606;22;20045;-82
2024/01/21 14:32:46;;;;;;;7.80;3.75;;;;;;;;;;6263838;22;20004;-81
2024/01/21 14:35:32;;;;;;;9.05;4.75;;;;;;;;;;6245813;22;20006;-81
2024/01/21 14:38:17;;;;;;;11.32;5.53;;;;;;;;;;6263530;22;20021;-82
2024/01/21 14:41:02;;;;;;;10.82;4.93;;;;;;;;;;6270399;22;20007;-80
2024/01/21 14:43:48;;;;;;;10.68;4.85;;;;;;;;;;6271605;22;20003;-81
2024/01/21 14:46:33;;;;;;;14.35;6.15;;;;;;;;;;6246648;22;20090;-81
2024/01/21 14:49:19;;;;;;;10.73;4.95;;;;;;;;;;6270193;22;20007;-80
2024/01/21 14:52:04;;;;;;;9.23;4.00;;;;;;;;;;6270378;22;20003;-80
2024/01/21 14:54:49;;;;;;;10.57;4.28;;;;;;;;;;6269278;22;20362;-80
2024/01/21 14:57:35;;;;;;;11.00;4.85;;;;;;;;;;6267896;22;19999;-80
2024/01/21 15:00:20;;;;;;;7.85;3.65;;;;;;;;;;6271887;22;20045;-81
2024/01/21 15:03:06;;;;;;;7.03;3.67;;;;;;;;;;6273036;22;20027;-80
2024/01/21 15:05:51;;;;;;;7.88;3.75;;;;;;;;;;6270642;22;20003;-80
2024/01/21 15:08:36;;;;;;;8.60;3.65;;;;;;;;;;6268278;22;20029;-80
2024/01/21 15:11:24;;;;;;;8.90;4.03;;;;;;;;;;6268181;22;20074;-80
2024/01/21 15:14:16;;;;;;;8.27;3.55;;;;;;;;;;6266241;22;20070;-80
2024/01/21 15:17:01;;;;;;;10.52;4.68;;;;;;;;;;6264436;22;20007;-79
2024/01/21 15:19:46;;;;;;;7.75;3.15;;;;;;;;;;6265556;22;20003;-79
2024/01/21 15:22:32;;;;;;;6.25;2.83;;;;;;;;;;6265582;22;20010;-82
2024/01/21 15:25:17;;;;;;;12.55;3.80;;;;;;;;;;6266163;22;20003;-81
2024/01/21 15:28:02;;;;;;;8.50;3.70;;;;;;;;;;6272918;22;20001;-81
2024/01/21 15:30:48;;;;;;;6.90;3.40;;;;;;;;;;6272806;22;19992;-81
2024/01/21 15:33:33;;;;;;;9.82;4.15;;;;;;;;;;6270133;22;20006;-82
2024/01/21 15:36:19;;;;;;;10.52;4.25;;;;;;;;;;6272831;22;20010;-82
2024/01/21 15:39:04;;;;;;;10.18;5.20;;;;;;;;;;6272569;22;20459;-80
2024/01/21 15:41:49;;;;;;;7.40;3.67;;;;;;;;;;6271167;22;20439;-81
2024/01/21 15:44:35;;;;;;;10.30;3.90;;;;;;;;;;6269787;22;20007;-80
2024/01/21 15:47:20;;;;;;;10.70;4.72;;;;;;;;;;6271694;22;20003;-81
2024/01/21 15:50:06;;;;;;;14.90;5.70;;;;;;;;;;6271939;22;20070;-80
2024/01/21 15:52:51;;;;;;;9.00;4.55;;;;;;;;;;6247280;22;19999;-80
2024/01/21 15:55:38;;;;;;;9.98;4.28;;;;;;;;;;6265401;22;20627;-80
2024/01/21 15:58:23;;;;;;;8.73;3.92;;;;;;;;;;6268133;22;19999;-79
2024/01/21 16:01:09;;;;;;;10.75;4.82;;;;;;;;;;6265770;22;20010;-81
2024/01/21 16:03:58;;;;;;;10.15;4.13;;;;;;;;;;6266316;22;20034;-81
2024/01/21 16:06:43;;;;;;;10.88;4.47;;;;;;;;;;6265613;22;19999;-80
2024/01/21 16:09:28;;;;;;;8.70;4.40;;;;;;;;;;6265871;22;20007;-81
2024/01/21 16:12:15;;;;;;;7.50;3.53;;;;;;;;;;6269337;22;20051;-81
2024/01/21 16:15:00;;;;;;;10.45;3.97;;;;;;;;;;6271488;22;20003;-80
2024/01/21 16:17:46;;;;;;;18.52;4.88;;;;;;;;;;6272119;22;19996;-81
2024/01/21 16:20:33;;;;;;;7.53;3.22;;;;;;;;;;6269843;22;20454;-80
2024/01/21 16:23:18;;;;;;;7.13;3.50;;;;;;;;;;6272132;22;20404;-80